Time;durP1;ratioP1;P1;durP2;ratioP2;P2;SDS_P1;SDS_P2;PMS_P1;PMS_P2;Temp;Humidity;BMP_temperature;BMP_pressure;BME280_temperature;BME280_humidity;BME280_pressure;Samples;Min_cycle;Max_cycle;Signal;HPM_P1;HPM_P2
2022/01/09 00:00:47;;;;;;;1.53;1.53;;;;;;;4.04;75.23;96928.38;4984102;28;20234;-69
2022/01/09 00:03:14;;;;;;;1.60;1.50;;;;;;;4.33;73.31;96907.91;4993972;28;20240;-68
2022/01/09 00:05:41;;;;;;;1.80;1.70;;;;;;;3.95;74.26;96893.44;4993562;28;20901;-70
2022/01/09 00:08:08;;;;;;;1.40;1.30;;;;;;;4.46;73.62;96897.38;4997397;28;20226;-70
2022/01/09 00:10:36;;;;;;;1.70;1.60;;;;;;;4.29;72.59;96870.56;5002436;28;20226;-70
2022/01/09 00:13:03;;;;;;;1.47;1.33;;;;;;;4.47;73.15;96875.25;4997119;28;20257;-68
2022/01/09 00:15:30;;;;;;;1.90;1.80;;;;;;;3.56;76.81;96912.59;5001199;28;20231;-68
2022/01/09 00:17:57;;;;;;;1.80;1.70;;;;;;;3.84;76.50;96903.78;4995946;28;20228;-69
2022/01/09 00:20:24;;;;;;;1.40;1.40;;;;;;;4.29;74.69;96864.50;5001055;28;20616;-70
2022/01/09 00:22:52;;;;;;;1.50;1.50;;;;;;;2.98;78.56;96918.13;4999707;28;20227;-72
2022/01/09 00:25:22;;;;;;;1.67;1.67;;;;;;;3.68;75.79;96855.66;4994023;28;20226;-69
2022/01/09 00:27:50;;;;;;;1.90;1.80;;;;;;;4.12;73.91;96846.41;4996860;28;20230;-73
2022/01/09 00:30:20;;;;;;;1.50;1.40;;;;;;;3.40;78.35;96903.19;5006787;28;20221;-71
2022/01/09 00:32:47;;;;;;;1.70;1.60;;;;;;;4.53;74.30;96855.97;4996290;28;20234;-72
2022/01/09 00:35:15;;;;;;;2.00;1.90;;;;;;;3.71;76.22;96860.53;5008681;28;20221;-70
2022/01/09 00:37:44;;;;;;;1.63;1.53;;;;;;;3.85;77.45;96882.47;4991763;28;20221;-72
2022/01/09 00:40:13;;;;;;;1.40;1.40;;;;;;;4.21;75.82;96862.03;5000440;28;20228;-68
2022/01/09 00:42:41;;;;;;;2.10;2.00;;;;;;;3.90;76.59;96863.44;5002235;28;20229;-68
2022/01/09 00:45:10;;;;;;;1.47;1.40;;;;;;;3.24;76.11;96835.81;5000015;28;20705;-69
2022/01/09 00:47:37;;;;;;;1.50;1.50;;;;;;;3.91;73.13;96813.13;5002494;28;20268;-68
2022/01/09 00:50:04;;;;;;;1.40;1.40;;;;;;;4.08;74.92;96852.28;4989334;28;20244;-68
2022/01/09 00:52:31;;;;;;;1.30;1.30;;;;;;;3.11;77.27;96865.53;4993377;28;20236;-69
2022/01/09 00:55:10;;;;;;;1.80;1.80;;;;;;;3.56;76.57;96865.16;5003079;28;20670;-69
2022/01/09 00:57:37;;;;;;;1.40;1.40;;;;;;;4.87;72.15;96819.75;5002100;28;20224;-69
2022/01/09 01:00:05;;;;;;;1.20;1.20;;;;;;;3.59;74.51;96812.84;5002666;28;20235;-69
2022/01/09 01:02:33;;;;;;;1.40;1.40;;;;;;;4.45;73.82;96828.94;4997850;28;20229;-68
2022/01/09 01:05:00;;;;;;;1.80;1.70;;;;;;;5.21;71.97;96828.44;4963723;28;20241;-69
2022/01/09 01:07:28;;;;;;;1.47;1.43;;;;;;;4.70;72.99;96815.91;4997648;28;20239;-69
2022/01/09 01:09:57;;;;;;;1.40;1.30;;;;;;;4.19;74.68;96835.06;4985219;28;20229;-69
2022/01/09 01:12:28;;;;;;;1.60;1.60;;;;;;;5.14;72.91;96832.91;4985021;28;20239;-69
2022/01/09 01:14:55;;;;;;;1.90;1.80;;;;;;;5.14;72.75;96830.25;4977811;28;20248;-69
2022/01/09 01:17:23;;;;;;;1.70;1.70;;;;;;;4.53;72.43;96815.53;4959909;28;20232;-69
2022/01/09 01:19:51;;;;;;;1.90;1.80;;;;;;;4.13;75.07;96845.41;4985140;28;20230;-69
2022/01/09 01:22:28;;;;;;;1.30;1.30;;;;;;;5.15;71.94;96831.91;4966050;28;20669;-69
2022/01/09 01:24:57;;;;;;;1.40;1.40;;;;;;;5.36;71.80;96844.03;4986262;28;20232;-69
2022/01/09 01:27:24;;;;;;;2.90;2.70;;;;;;;5.09;72.22;96827.44;4977628;28;20226;-69
2022/01/09 01:29:51;;;;;;;1.60;1.50;;;;;;;4.47;74.46;96862.06;4975201;28;21007;-69
2022/01/09 01:32:18;;;;;;;1.73;1.63;;;;;;;5.35;71.82;96855.63;4984240;28;20225;-68
2022/01/09 01:34:45;;;;;;;1.60;1.50;;;;;;;5.31;71.79;96857.06;4981582;28;20248;-69
2022/01/09 01:37:12;;;;;;;1.50;1.50;;;;;;;5.23;72.10;96854.66;4966269;28;20225;-69
2022/01/09 01:39:39;;;;;;;1.70;1.60;;;;;;;5.85;70.27;96865.56;4960080;28;20225;-69
2022/01/09 01:42:06;;;;;;;1.53;1.43;;;;;;;5.62;70.41;96837.81;4980615;28;20259;-68
2022/01/09 01:44:43;;;;;;;1.50;1.50;;;;;;;5.20;72.90;96850.56;4980394;28;20240;-69
2022/01/09 01:47:11;;;;;;;1.70;1.60;;;;;;;3.63;76.56;96884.44;4986453;28;20232;-69
2022/01/09 01:49:38;;;;;;;2.10;2.00;;;;;;;5.46;72.29;96862.06;4997015;28;20243;-69
2022/01/09 01:52:07;;;;;;;2.13;2.03;;;;;;;4.33;74.75;96877.09;5000075;28;20229;-69
2022/01/09 01:54:34;;;;;;;1.73;1.50;;;;;;;5.70;70.82;96865.00;4997768;28;20703;-69
2022/01/09 01:57:03;;;;;;;1.60;1.50;;;;;;;5.44;71.10;96870.22;5005498;28;20225;-69
2022/01/09 01:59:30;;;;;;;2.10;2.00;;;;;;;5.02;70.17;96830.09;5002208;28;20739;-69
2022/01/09 02:01:58;;;;;;;2.03;1.93;;;;;;;5.96;69.93;96867.53;5002132;28;20227;-69
2022/01/09 02:04:25;;;;;;;2.00;1.90;;;;;;;5.69;70.56;96871.34;4998020;28;20675;-68
2022/01/09 02:06:54;;;;;;;2.00;1.80;;;;;;;5.09;69.37;96843.28;4994962;28;20232;-69
2022/01/09 02:09:21;;;;;;;2.33;2.20;;;;;;;5.06;70.91;96875.44;5003048;28;20263;-69
2022/01/09 02:11:48;;;;;;;2.13;1.97;;;;;;;5.71;69.25;96864.00;5004197;28;20235;-69
2022/01/09 02:14:15;;;;;;;2.00;1.90;;;;;;;6.21;68.04;96887.94;5005013;28;20231;-69
2022/01/09 02:16:43;;;;;;;1.60;1.50;;;;;;;5.86;68.35;96879.59;4999032;28;20252;-69
2022/01/09 02:19:15;;;;;;;2.10;2.00;;;;;;;5.61;69.76;96899.66;4996676;28;20731;-69
2022/01/09 02:21:44;;;;;;;1.33;1.33;;;;;;;4.89;71.28;96920.75;5017236;28;20227;-69
2022/01/09 02:24:15;;;;;;;1.60;1.50;;;;;;;6.03;68.50;96923.84;5002932;28;20906;-69
2022/01/09 02:26:43;;;;;;;1.50;1.50;;;;;;;5.12;71.40;96932.72;5003258;28;20254;-69
2022/01/09 02:29:10;;;;;;;1.87;1.77;;;;;;;6.51;67.76;96925.22;5014420;28;20233;-69
2022/01/09 02:31:38;;;;;;;1.63;1.63;;;;;;;6.05;67.74;96909.59;4993331;28;20810;-68
2022/01/09 02:34:05;;;;;;;1.60;1.50;;;;;;;6.51;66.79;96914.63;4994665;28;20225;-69
2022/01/09 02:36:32;;;;;;;1.80;1.70;;;;;;;6.27;67.55;96918.84;5004052;28;20231;-69
2022/01/09 02:38:59;;;;;;;1.40;1.40;;;;;;;6.58;66.76;96931.28;5002874;28;20227;-69
2022/01/09 02:41:26;;;;;;;1.80;1.70;;;;;;;5.87;68.23;96918.25;5001857;28;20225;-69
2022/01/09 02:43:53;;;;;;;1.50;1.40;;;;;;;5.26;70.03;96925.56;4994430;28;20226;-69
2022/01/09 02:49:08;;;;;;;2.43;2.33;;;;;;;5.04;72.63;96981.31;5002642;28;20233;-69
2022/01/09 02:51:35;;;;;;;1.80;1.80;;;;;;;6.25;68.48;96942.06;5002872;28;20650;-69
2022/01/09 02:55:05;;;;;;;1.80;1.70;;;;;;;6.07;69.02;96956.03;4998352;28;20233;-69
2022/01/09 02:56:49;;;;;;;1.40;1.40;;;;;;;6.11;68.03;96948.47;4999038;28;20225;-69
2022/01/09 02:59:16;;;;;;;1.57;1.53;;;;;;;6.22;68.14;96966.31;5001603;28;20227;-69
2022/01/09 03:01:43;;;;;;;1.70;1.60;;;;;;;6.47;67.11;96974.34;5002393;28;20247;-69
2022/01/09 03:04:10;;;;;;;1.70;1.60;;;;;;;6.79;67.24;97000.81;5019178;28;20225;-69
2022/01/09 03:06:37;;;;;;;2.20;2.10;;;;;;;6.60;66.69;96980.59;4998317;28;20251;-69
2022/01/09 03:09:06;;;;;;;1.60;1.50;;;;;;;6.64;67.59;97002.97;4996621;28;20255;-69
2022/01/09 03:11:34;;;;;;;6.60;2.17;;;;;;;6.66;66.95;97003.56;5016486;28;20233;-69
2022/01/09 03:14:00;;;;;;;1.60;1.50;;;;;;;5.88;69.61;97023.06;4998058;28;20240;-69
2022/01/09 03:16:27;;;;;;;2.07;1.97;;;;;;;6.02;68.97;97019.34;5005335;28;20233;-70
2022/01/09 03:18:54;;;;;;;1.57;1.57;;;;;;;6.18;68.70;97032.09;5019351;28;20229;-69
2022/01/09 03:21:21;;;;;;;2.20;2.00;;;;;;;6.18;68.28;97028.66;4976227;28;20239;-69
2022/01/09 03:23:48;;;;;;;2.33;2.07;;;;;;;6.05;69.34;97055.97;4999327;28;20233;-68
2022/01/09 03:26:15;;;;;;;1.50;1.50;;;;;;;6.34;68.05;97054.69;5000584;28;20226;-69
2022/01/09 03:28:42;;;;;;;1.30;1.30;;;;;;;6.01;69.36;97060.88;4985402;28;20224;-70
2022/01/09 03:31:09;;;;;;;2.63;2.07;;;;;;;5.89;69.21;97057.25;5002588;28;20229;-69
2022/01/09 03:33:36;;;;;;;1.83;1.77;;;;;;;5.62;70.08;97078.44;4991865;28;20754;-69
2022/01/09 03:36:03;;;;;;;1.30;1.30;;;;;;;5.92;69.04;97091.22;5002754;28;20226;-69
2022/01/09 03:38:30;;;;;;;1.67;1.57;;;;;;;5.91;68.94;97089.59;5001582;28;20239;-69
2022/01/09 03:41:01;;;;;;;1.40;1.40;;;;;;;5.89;68.74;97088.19;5002675;28;20229;-69
2022/01/09 03:43:28;;;;;;;2.00;1.63;;;;;;;5.79;69.04;97112.41;5001732;28;20226;-69
2022/01/09 03:45:55;;;;;;;2.50;1.60;;;;;;;5.89;68.95;97112.00;4996076;28;20240;-69
2022/01/09 03:48:22;;;;;;;1.67;1.47;;;;;;;5.37;69.54;97115.28;5001356;28;20243;-69
2022/01/09 03:50:52;;;;;;;2.00;1.90;;;;;;;5.57;68.81;97131.13;5004005;28;20257;-69
2022/01/09 03:53:19;;;;;;;1.60;1.50;;;;;;;5.81;68.01;97137.63;5005003;28;20645;-68
2022/01/09 03:55:46;;;;;;;1.80;1.70;;;;;;;5.36;69.23;97157.78;5017355;28;20242;-69
2022/01/09 03:58:12;;;;;;;2.03;1.93;;;;;;;5.53;68.01;97148.44;4996292;28;20975;-69
2022/01/09 04:00:40;;;;;;;1.40;1.40;;;;;;;5.07;68.87;97178.25;5004258;28;20229;-69
2022/01/09 04:03:07;;;;;;;1.43;1.43;;;;;;;5.00;67.99;97186.16;5006818;28;20726;-69
2022/01/09 04:05:34;;;;;;;1.70;1.70;;;;;;;4.60;68.81;97222.94;5011672;28;20603;-69
2022/01/09 04:08:01;;;;;;;1.60;1.50;;;;;;;4.85;68.30;97225.91;5007387;28;20316;-70
2022/01/09 04:10:43;;;;;;;1.60;1.50;;;;;;;4.75;68.48;97251.88;4996447;28;20233;-69
2022/01/09 04:13:12;;;;;;;1.70;1.70;;;;;;;4.72;68.51;97268.94;5005907;28;20221;-69
2022/01/09 04:15:45;;;;;;;1.73;1.63;;;;;;;5.14;68.14;97273.41;5004909;28;20233;-69
2022/01/09 04:18:16;;;;;;;1.60;1.60;;;;;;;4.83;68.15;97275.47;5007077;28;20679;-69
2022/01/09 04:20:44;;;;;;;1.60;1.50;;;;;;;4.45;68.22;97267.97;5005849;28;20949;-69
2022/01/09 04:23:11;;;;;;;1.40;1.40;;;;;;;4.53;68.59;97288.94;4995353;28;20753;-69
2022/01/09 04:25:40;;;;;;;1.40;1.40;;;;;;;4.43;68.03;97290.25;5007644;28;20227;-69
2022/01/09 04:28:07;;;;;;;1.47;1.47;;;;;;;4.38;68.35;97317.22;5005887;28;20224;-69
2022/01/09 04:30:34;;;;;;;1.33;1.33;;;;;;;4.77;67.79;97325.63;5020092;28;20592;-69
2022/01/09 04:33:01;;;;;;;2.63;1.60;;;;;;;4.48;67.25;97317.72;5004808;28;20240;-69
2022/01/09 04:35:28;;;;;;;1.60;1.53;;;;;;;4.64;67.22;97348.31;4998473;28;20251;-68
2022/01/09 04:37:55;;;;;;;2.07;1.97;;;;;;;4.33;68.09;97351.31;5004633;28;20229;-69
2022/01/09 04:40:23;;;;;;;1.50;1.50;;;;;;;3.94;69.24;97371.03;5006304;28;20228;-68
2022/01/09 04:42:57;;;;;;;1.50;1.50;;;;;;;4.32;67.80;97376.09;5006558;28;20225;-69
2022/01/09 04:45:26;;;;;;;1.87;1.77;;;;;;;4.15;68.02;97372.88;5005780;28;20221;-69
2022/01/09 04:47:54;;;;;;;1.80;1.80;;;;;;;4.32;68.72;97402.47;4998541;28;20236;-69
2022/01/09 04:50:27;;;;;;;1.30;1.30;;;;;;;4.23;68.93;97414.16;5004829;28;20228;-69
2022/01/09 04:53:04;;;;;;;1.60;1.60;;;;;;;4.13;69.06;97417.94;5022414;28;20240;-69
2022/01/09 04:55:33;;;;;;;1.70;1.60;;;;;;;4.20;68.56;97409.25;5004829;28;20220;-69
2022/01/09 04:58:00;;;;;;;1.63;1.57;;;;;;;3.95;69.17;97406.97;5005723;28;20252;-69
2022/01/09 05:00:27;;;;;;;1.63;1.60;;;;;;;4.60;67.84;97417.53;4995625;28;20240;-69
2022/01/09 05:02:54;;;;;;;1.40;1.40;;;;;;;4.73;67.57;97428.19;5005362;28;20241;-69
2022/01/09 05:05:23;;;;;;;1.63;1.60;;;;;;;4.50;67.80;97413.41;5003890;28;20230;-69
2022/01/09 05:07:50;;;;;;;1.57;1.57;;;;;;;4.68;67.33;97417.38;5006734;28;20600;-70
2022/01/09 05:10:17;;;;;;;1.40;1.40;;;;;;;4.61;67.42;97413.88;5008081;28;20215;-70
2022/01/09 05:12:44;;;;;;;1.60;1.60;;;;;;;4.81;67.02;97429.91;4998127;28;20228;-68
2022/01/09 05:15:15;;;;;;;1.70;1.60;;;;;;;4.79;67.48;97440.66;5006101;28;20232;-69
2022/01/09 05:17:42;;;;;;;1.70;1.70;;;;;;;4.39;68.20;97450.84;5005775;28;20229;-69
2022/01/09 05:20:10;;;;;;;1.90;1.80;;;;;;;4.23;68.87;97464.28;5017400;28;20237;-69
2022/01/09 05:22:37;;;;;;;1.70;1.60;;;;;;;4.50;68.15;97462.72;5020030;28;20237;-69
2022/01/09 05:25:06;;;;;;;2.00;1.53;;;;;;;4.82;67.24;97460.56;4998730;28;20236;-69
2022/01/09 05:27:35;;;;;;;1.50;1.50;;;;;;;4.76;67.07;97456.88;4999644;28;20230;-69
2022/01/09 05:30:04;;;;;;;1.60;1.50;;;;;;;4.98;66.15;97457.69;5004543;28;20228;-69
2022/01/09 05:32:31;;;;;;;1.70;1.60;;;;;;;4.87;67.13;97485.41;5004047;28;20600;-69
2022/01/09 05:34:58;;;;;;;2.07;1.67;;;;;;;4.75;67.45;97470.25;5007839;28;20229;-69
2022/01/09 05:37:25;;;;;;;1.80;1.70;;;;;;;5.08;67.03;97492.50;5001886;28;20256;-69
2022/01/09 05:39:51;;;;;;;2.00;1.90;;;;;;;4.33;69.23;97512.31;5002330;28;20221;-69
2022/01/09 05:42:19;;;;;;;1.80;1.70;;;;;;;4.81;67.42;97501.22;5020039;28;20219;-69
2022/01/09 05:44:47;;;;;;;1.90;1.80;;;;;;;4.85;67.17;97503.25;5004187;28;20359;-69
2022/01/09 05:47:14;;;;;;;2.17;2.07;;;;;;;4.52;68.30;97513.53;5020061;28;20225;-69
2022/01/09 05:49:41;;;;;;;2.13;2.03;;;;;;;5.06;66.85;97505.09;4997791;28;20251;-69
2022/01/09 05:52:08;;;;;;;2.00;1.90;;;;;;;4.72;67.63;97509.25;5002273;28;20231;-70
2022/01/09 05:54:35;;;;;;;1.80;1.70;;;;;;;5.03;66.62;97510.78;5000137;28;20240;-69
2022/01/09 05:57:02;;;;;;;1.87;1.77;;;;;;;4.84;67.73;97536.00;5003170;28;20253;-69
2022/01/09 05:59:30;;;;;;;7.80;1.93;;;;;;;4.73;68.03;97547.84;5002199;28;21041;-69
2022/01/09 06:01:57;;;;;;;2.73;2.40;;;;;;;4.27;69.36;97564.03;4998918;28;20225;-69
2022/01/09 06:04:25;;;;;;;3.07;2.13;;;;;;;4.75;67.70;97555.59;5009358;28;23287;-69
2022/01/09 06:06:54;;;;;;;2.40;2.20;;;;;;;4.76;67.65;97551.16;5002217;28;20229;-70
2022/01/09 06:09:22;;;;;;;3.07;1.90;;;;;;;4.91;66.86;97557.22;5005227;28;20695;-69
2022/01/09 06:11:49;;;;;;;2.10;1.90;;;;;;;5.09;66.93;97573.44;5000947;28;20224;-69
2022/01/09 06:14:16;;;;;;;2.10;2.00;;;;;;;4.68;67.65;97581.13;5000802;28;20237;-69
2022/01/09 06:16:43;;;;;;;3.70;2.10;;;;;;;4.57;68.24;97598.28;5000756;28;20732;-69
2022/01/09 06:19:10;;;;;;;3.10;2.13;;;;;;;4.63;67.63;97584.31;5004952;28;20723;-69
2022/01/09 06:21:37;;;;;;;3.97;2.30;;;;;;;4.67;67.55;97590.03;5019485;28;20770;-69
2022/01/09 06:24:05;;;;;;;5.13;2.63;;;;;;;4.98;66.57;97603.00;5004333;28;20231;-69
2022/01/09 06:26:32;;;;;;;6.03;2.47;;;;;;;4.70;66.31;97594.94;4999103;28;20230;-69
2022/01/09 06:28:59;;;;;;;5.70;2.50;;;;;;;5.04;65.60;97618.13;4999646;28;20256;-69
2022/01/09 06:31:26;;;;;;;6.37;2.70;;;;;;;4.85;65.66;97610.75;5005903;28;20233;-69
2022/01/09 06:33:53;;;;;;;7.63;2.60;;;;;;;4.92;65.78;97635.44;5003392;28;20224;-69
2022/01/09 06:36:20;;;;;;;5.67;2.33;;;;;;;4.90;65.31;97630.31;5003025;28;20243;-69
2022/01/09 06:38:47;;;;;;;3.40;3.10;;;;;;;4.76;65.55;97638.31;4994719;28;20239;-69
2022/01/09 06:41:14;;;;;;;5.83;3.00;;;;;;;5.10;65.05;97650.88;4996097;28;20220;-69
2022/01/09 06:43:41;;;;;;;4.80;2.60;;;;;;;5.00;64.34;97650.38;5001919;28;20237;-69
2022/01/09 06:46:08;;;;;;;5.63;2.63;;;;;;;4.62;65.95;97671.66;5005162;28;20225;-69
2022/01/09 06:48:35;;;;;;;5.47;2.73;;;;;;;5.15;64.15;97672.28;5003102;28;20236;-68
2022/01/09 06:51:02;;;;;;;9.60;2.80;;;;;;;4.51;66.02;97676.41;5011649;28;20233;-69
2022/01/09 06:53:28;;;;;;;8.87;3.57;;;;;;;4.84;65.33;97689.19;4996473;28;20225;-69
2022/01/09 06:55:55;;;;;;;6.30;2.90;;;;;;;4.96;65.35;97696.69;5004580;28;20221;-69
2022/01/09 06:58:22;;;;;;;8.40;3.23;;;;;;;4.80;65.01;97698.47;5004785;28;20235;-69
2022/01/09 07:00:49;;;;;;;4.37;2.30;;;;;;;4.57;66.01;97703.91;5012948;28;20563;-69
2022/01/09 07:03:16;;;;;;;7.07;3.00;;;;;;;4.93;64.17;97711.06;5018147;28;20229;-69
2022/01/09 07:05:43;;;;;;;6.60;3.20;;;;;;;4.76;64.90;97720.19;4996895;28;20229;-69
2022/01/09 07:08:10;;;;;;;7.77;3.70;;;;;;;4.72;64.22;97711.78;5005570;28;20858;-69
2022/01/09 07:10:37;;;;;;;5.13;2.37;;;;;;;4.66;65.09;97737.13;5003158;28;20245;-69
2022/01/09 07:13:05;;;;;;;7.93;2.43;;;;;;;4.85;64.67;97734.91;5003850;28;20806;-69
2022/01/09 07:15:32;;;;;;;5.50;2.77;;;;;;;4.26;65.48;97735.75;5003649;28;20692;-69
2022/01/09 07:17:58;;;;;;;7.80;3.20;;;;;;;4.53;65.22;97748.34;4996787;28;20239;-70
2022/01/09 07:20:29;;;;;;;6.17;3.27;;;;;;;5.02;64.56;97759.34;5007747;28;20227;-69
2022/01/09 07:22:56;;;;;;;6.00;3.73;;;;;;;4.89;64.97;97766.09;5006854;28;20225;-69
2022/01/09 07:25:23;;;;;;;6.33;2.93;;;;;;;4.69;64.80;97752.59;5019984;28;20235;-69
2022/01/09 07:27:50;;;;;;;3.20;2.70;;;;;;;4.79;64.31;97765.53;5006968;28;20243;-69
2022/01/09 07:30:17;;;;;;;5.63;2.70;;;;;;;4.65;65.34;97766.34;4999016;28;21330;-69
2022/01/09 07:32:47;;;;;;;8.20;3.10;;;;;;;4.99;63.45;97763.19;5022003;28;20232;-69
2022/01/09 07:35:14;;;;;;;4.57;2.80;;;;;;;4.96;63.79;97778.59;5024700;28;20213;-69
2022/01/09 07:37:41;;;;;;;7.93;3.50;;;;;;;4.36;65.16;97786.47;5004007;28;20236;-69
2022/01/09 07:40:08;;;;;;;5.73;2.83;;;;;;;4.54;64.22;97767.63;5013139;28;20224;-69
2022/01/09 07:42:35;;;;;;;5.43;3.47;;;;;;;4.35;64.45;97774.28;5001529;28;21078;-68
2022/01/09 07:45:06;;;;;;;5.30;2.83;;;;;;;4.72;62.99;97772.53;5007490;28;20602;-69
2022/01/09 07:47:35;;;;;;;9.53;3.87;;;;;;;4.80;63.82;97796.22;5006039;28;20696;-69
2022/01/09 07:50:06;;;;;;;7.47;3.10;;;;;;;4.72;63.69;97794.50;5006658;28;20218;-69
2022/01/09 07:52:34;;;;;;;6.67;3.40;;;;;;;4.15;65.12;97793.25;5021836;28;20245;-69
2022/01/09 07:55:02;;;;;;;7.83;3.40;;;;;;;4.71;63.80;97797.31;4996656;28;20224;-69
2022/01/09 07:57:29;;;;;;;7.07;4.27;;;;;;;4.46;64.19;97802.03;5020496;28;20232;-69
2022/01/09 07:59:57;;;;;;;9.40;3.60;;;;;;;4.24;64.68;97817.75;5006750;28;20944;-69
2022/01/09 08:02:24;;;;;;;3.43;3.00;;;;;;;4.19;64.72;97820.09;5005148;28;20233;-70
2022/01/09 08:04:51;;;;;;;6.27;3.33;;;;;;;4.59;63.77;97814.63;5005644;28;20244;-69
2022/01/09 08:07:18;;;;;;;7.67;3.30;;;;;;;4.03;65.18;97818.44;5010517;28;20231;-69
2022/01/09 08:09:45;;;;;;;7.63;3.77;;;;;;;4.68;63.71;97837.31;5007099;28;20794;-69
2022/01/09 08:12:14;;;;;;;8.47;3.93;;;;;;;4.49;63.74;97831.53;5006401;28;20217;-69
2022/01/09 08:14:41;;;;;;;7.23;3.70;;;;;;;4.03;65.26;97842.19;5007838;28;20232;-69
2022/01/09 08:17:08;;;;;;;5.77;3.27;;;;;;;4.02;65.20;97829.97;5005893;28;20232;-69
2022/01/09 08:19:35;;;;;;;8.90;2.93;;;;;;;3.88;65.74;97860.56;5001083;28;20229;-69
2022/01/09 08:22:04;;;;;;;4.20;2.83;;;;;;;4.52;63.87;97835.66;5000997;28;20232;-69
2022/01/09 08:24:32;;;;;;;7.53;2.83;;;;;;;4.44;64.31;97849.75;5007442;28;20240;-69
2022/01/09 08:26:59;;;;;;;5.43;2.77;;;;;;;4.01;65.24;97854.69;5006861;28;20260;-69
2022/01/09 08:29:26;;;;;;;4.10;2.67;;;;;;;4.14;64.87;97848.84;5016293;28;20243;-69
2022/01/09 08:31:54;;;;;;;8.17;4.00;;;;;;;4.45;65.05;97858.47;4998512;28;20235;-69
2022/01/09 08:34:21;;;;;;;5.50;3.00;;;;;;;4.39;65.33;97860.03;4998938;28;20247;-69
2022/01/09 08:36:48;;;;;;;10.17;4.33;;;;;;;5.08;63.37;97849.28;5007628;28;20251;-69
2022/01/09 08:39:17;;;;;;;9.73;4.03;;;;;;;5.01;63.10;97823.78;5006814;28;20216;-69
2022/01/09 08:41:44;;;;;;;6.70;4.20;;;;;;;4.61;64.30;97842.50;5008059;28;20601;-69
2022/01/09 08:44:11;;;;;;;10.63;4.60;;;;;;;4.77;63.63;97830.94;4995438;28;20245;-69
2022/01/09 08:46:38;;;;;;;6.57;4.50;;;;;;;4.71;63.84;97832.47;5003193;28;20244;-69
2022/01/09 08:49:06;;;;;;;9.03;4.30;;;;;;;4.50;63.79;97832.34;5005564;28;20228;-69
2022/01/09 08:51:33;;;;;;;9.77;5.67;;;;;;;4.72;63.15;97841.22;4990758;28;20240;-70
2022/01/09 08:54:00;;;;;;;9.80;5.10;;;;;;;4.25;64.22;97851.06;5017011;28;20232;-69
2022/01/09 08:56:28;;;;;;;11.47;6.03;;;;;;;4.93;63.10;97855.59;5014418;28;20622;-69
2022/01/09 08:58:57;;;;;;;30.77;15.97;;;;;;;4.76;63.82;97849.63;5003370;28;20717;-69
2022/01/09 09:01:43;;;;;;;12.97;7.03;;;;;;;4.81;63.81;97858.63;5006935;28;20239;-69
2022/01/09 09:04:10;;;;;;;14.97;5.60;;;;;;;4.76;63.84;97866.28;5005642;28;20239;-69
2022/01/09 09:06:38;;;;;;;9.70;3.93;;;;;;;4.43;65.29;97871.84;5000479;28;20249;-69
2022/01/09 09:09:07;;;;;;;9.73;3.77;;;;;;;4.38;65.56;97874.22;5001297;28;20229;-69
2022/01/09 09:11:35;;;;;;;6.10;3.63;;;;;;;4.10;65.89;97861.56;5001672;28;20227;-69
2022/01/09 09:14:03;;;;;;;12.80;6.17;;;;;;;4.72;64.90;97889.59;5004824;28;20768;-69
2022/01/09 09:16:31;;;;;;;8.13;3.50;;;;;;;4.26;64.85;97873.00;5006010;28;20227;-69
2022/01/09 09:18:58;;;;;;;7.50;4.30;;;;;;;4.41;64.41;97878.31;5006194;28;20233;-69
2022/01/09 09:21:25;;;;;;;5.67;3.80;;;;;;;4.36;64.00;97878.84;5001511;28;20239;-69
2022/01/09 09:23:52;;;;;;;4.97;3.33;;;;;;;3.87;64.64;97884.50;5000549;28;20250;-69
2022/01/09 09:26:21;;;;;;;5.83;3.97;;;;;;;4.25;63.68;97900.38;5006239;28;20224;-69
2022/01/09 09:28:48;;;;;;;4.37;3.23;;;;;;;3.76;64.34;97881.25;5016066;28;20935;-69
2022/01/09 09:31:16;;;;;;;7.33;3.60;;;;;;;4.19;64.33;97903.75;5005870;28;20244;-69
2022/01/09 09:33:43;;;;;;;8.37;3.10;;;;;;;4.44;64.04;97928.13;4999800;28;20229;-68
2022/01/09 09:36:10;;;;;;;4.17;3.10;;;;;;;4.39;64.84;97925.22;5001729;28;20229;-69
2022/01/09 09:38:37;;;;;;;6.33;3.53;;;;;;;4.50;64.52;97916.84;5002265;28;20222;-69
2022/01/09 09:41:04;;;;;;;6.83;3.20;;;;;;;4.58;64.99;97937.09;5004230;28;20247;-69
2022/01/09 09:43:31;;;;;;;5.00;2.60;;;;;;;4.34;65.55;97936.28;5002216;28;20226;-69
2022/01/09 09:45:58;;;;;;;5.53;3.33;;;;;;;4.62;64.78;97931.28;4998371;28;20229;-69
2022/01/09 09:48:25;;;;;;;4.87;3.70;;;;;;;4.70;65.15;97938.31;5002215;28;20789;-69
2022/01/09 09:50:52;;;;;;;5.37;3.10;;;;;;;4.70;64.96;97930.38;5006425;28;20663;-69
2022/01/09 09:53:19;;;;;;;6.43;3.63;;;;;;;4.86;64.42;97935.53;5004090;28;20233;-69
2022/01/09 09:55:48;;;;;;;6.80;3.50;;;;;;;5.33;63.98;97945.97;5020298;28;20605;-69
2022/01/09 09:58:15;;;;;;;5.43;3.33;;;;;;;5.83;62.24;97933.81;5002551;28;20262;-70
2022/01/09 10:00:51;;;;;;;5.17;3.13;;;;;;;5.35;63.95;97914.91;4997386;28;20229;-70
2022/01/09 10:03:29;;;;;;;8.47;3.60;;;;;;;5.17;64.75;97924.00;5006998;28;20232;-69
2022/01/09 10:05:58;;;;;;;8.03;3.40;;;;;;;5.68;63.38;97915.31;5004397;28;20224;-69
2022/01/09 10:08:36;;;;;;;7.97;3.37;;;;;;;4.88;64.90;97930.06;4988448;28;20225;-70
2022/01/09 10:11:17;;;;;;;8.30;3.50;;;;;;;5.20;64.48;97936.88;4990373;28;20229;-70
2022/01/09 10:13:45;;;;;;;4.13;2.77;;;;;;;5.04;64.86;97931.75;4989899;28;20592;-69
2022/01/09 10:16:14;;;;;;;7.13;3.60;;;;;;;5.62;63.45;97930.09;4997493;28;20217;-70
2022/01/09 10:18:47;;;;;;;7.03;3.70;;;;;;;5.54;63.50;97918.81;4998901;28;20227;-70
2022/01/09 10:21:20;;;;;;;7.97;3.80;;;;;;;5.47;64.23;97932.75;4995692;28;20232;-69
2022/01/09 10:24:04;;;;;;;6.57;3.70;;;;;;;5.88;63.59;97941.19;4994350;28;20240;-70
2022/01/09 10:26:34;;;;;;;8.70;4.00;;;;;;;5.37;64.46;97928.75;4995024;28;20579;-69
2022/01/09 10:29:03;;;;;;;8.17;3.83;;;;;;;5.99;63.24;97927.47;5003437;28;20235;-69
2022/01/09 10:31:30;;;;;;;7.20;3.63;;;;;;;5.43;64.58;97922.75;4999661;28;20231;-69
2022/01/09 10:34:06;;;;;;;6.17;3.53;;;;;;;5.42;64.93;97921.91;5003627;28;20229;-70
2022/01/09 10:36:38;;;;;;;6.00;4.00;;;;;;;4.44;66.68;97907.81;4995422;28;20588;-69
2022/01/09 10:39:09;;;;;;;12.20;5.20;;;;;;;5.33;65.74;97938.88;4999395;28;20224;-70
2022/01/09 10:41:53;;;;;;;9.33;4.50;;;;;;;5.69;64.37;97945.25;5001987;28;20225;-70
2022/01/09 10:44:25;;;;;;;10.67;4.10;;;;;;;5.78;63.78;97934.38;4995894;28;20706;-68
2022/01/09 10:47:05;;;;;;;8.03;5.13;;;;;;;4.94;65.80;97945.25;5003544;28;20783;-70
2022/01/09 10:49:38;;;;;;;8.67;4.23;;;;;;;5.63;63.91;97949.44;5007747;28;20239;-69
2022/01/09 10:52:27;;;;;;;8.17;4.77;;;;;;;5.39;64.30;97932.03;5002148;28;20232;-70
2022/01/09 10:54:56;;;;;;;5.37;3.33;;;;;;;5.72;63.24;97942.25;5000584;28;20229;-69
2022/01/09 10:57:32;;;;;;;6.67;3.70;;;;;;;5.57;64.13;97943.06;5015191;28;20240;-69
2022/01/09 11:00:16;;;;;;;5.33;3.47;;;;;;;4.65;65.09;97946.78;5015230;28;20775;-69
2022/01/09 11:03:58;;;;;;;6.13;3.87;;;;;;;3.43;69.42;97999.22;5011267;27;20627;-69
2022/01/09 11:06:33;;;;;;;5.17;3.80;;;;;;;3.65;68.79;98002.94;5016435;28;20701;-70
2022/01/09 11:09:04;;;;;;;7.10;4.80;;;;;;;3.96;68.79;98002.16;4999795;28;20236;-70
2022/01/09 11:11:38;;;;;;;7.53;4.17;;;;;;;4.13;68.05;98000.25;5016885;28;20226;-69
2022/01/09 11:14:07;;;;;;;9.80;3.97;;;;;;;4.15;67.42;97966.59;4994282;28;20229;-70
2022/01/09 11:16:37;;;;;;;10.73;3.93;;;;;;;4.31;66.99;97965.66;4998980;28;20231;-69
2022/01/09 11:19:07;;;;;;;9.23;3.40;;;;;;;4.27;66.66;97967.03;5002338;28;20236;-70
2022/01/09 11:21:35;;;;;;;6.17;3.03;;;;;;;4.26;66.56;97954.81;4999191;28;20232;-69
2022/01/09 11:24:29;;;;;;;8.50;3.53;;;;;;;4.50;66.41;97974.94;4997084;28;20255;-71
2022/01/09 11:27:24;;;;;;;9.87;4.63;;;;;;;4.12;66.18;97938.75;4992001;28;20277;-71
2022/01/09 11:30:07;;;;;;;9.23;3.97;;;;;;;4.47;66.61;97970.03;4985330;28;21004;-70
2022/01/09 11:33:03;;;;;;;10.10;3.50;;;;;;;4.40;66.08;97956.72;4997062;28;21983;-70
2022/01/09 11:36:08;;;;;;;5.27;3.10;;;;;;;4.24;67.09;97973.47;4998310;28;20229;-70
2022/01/09 11:38:55;;;;;;;6.47;3.57;;;;;;;4.38;67.02;97971.88;4984260;28;20606;-70
2022/01/09 11:41:27;;;;;;;5.07;3.73;;;;;;;4.29;67.08;97954.47;4979953;28;20221;-70
2022/01/09 11:44:01;;;;;;;4.57;2.70;;;;;;;4.28;67.21;97958.09;4999736;28;20235;-70
2022/01/09 11:46:31;;;;;;;4.60;2.80;;;;;;;4.57;66.19;97956.56;4988402;28;20714;-70
2022/01/09 11:49:04;;;;;;;5.23;2.60;;;;;;;4.77;65.64;97944.53;4983978;28;20226;-70
2022/01/09 11:51:34;;;;;;;7.73;3.37;;;;;;;4.72;65.84;97955.63;4975522;28;21315;-70
2022/01/09 11:54:16;;;;;;;5.40;3.70;;;;;;;4.51;65.64;97932.50;4992365;28;20252;-69